sensor_id;sensor_type;location;lat;lon;timestamp;pressure;altitude;pressure_sealevel;temperature;humidity
24013;BME280;12220;50.194;18.948;2023-04-23T00:00:05;101521.23;;;10.49;50.33
24013;BME280;12220;50.194;18.948;2023-04-23T00:02:15;101513.34;;;10.42;50.38
24013;BME280;12220;50.194;18.948;2023-04-23T00:04:17;101520.05;;;10.37;50.46
24013;BME280;12220;50.194;18.948;2023-04-23T00:06:21;101522.32;;;10.28;50.56
24013;BME280;12220;50.194;18.948;2023-04-23T00:08:26;101517.34;;;10.19;50.72
24013;BME280;12220;50.194;18.948;2023-04-23T00:10:29;101525.99;;;10.11;50.87
24013;BME280;12220;50.194;18.948;2023-04-23T00:12:34;101520.00;;;10.05;50.99
24013;BME280;12220;50.194;18.948;2023-04-23T00:14:36;101517.58;;;9.99;51.20
24013;BME280;12220;50.194;18.948;2023-04-23T00:16:38;101525.09;;;9.95;51.33
24013;BME280;12220;50.194;18.948;2023-04-23T00:18:40;101523.48;;;9.91;51.46
24013;BME280;12220;50.194;18.948;2023-04-23T00:20:46;101514.49;;;9.89;51.51
24013;BME280;12220;50.194;18.948;2023-04-23T00:22:47;101519.15;;;9.87;51.57
24013;BME280;12220;50.194;18.948;2023-04-23T00:24:52;101513.58;;;9.88;51.64
24013;BME280;12220;50.194;18.948;2023-04-23T00:26:53;101520.66;;;9.92;51.70
24013;BME280;12220;50.194;18.948;2023-04-23T00:29:01;101516.88;;;9.95;51.72
24013;BME280;12220;50.194;18.948;2023-04-23T00:31:02;101518.48;;;9.99;51.84
24013;BME280;12220;50.194;18.948;2023-04-23T00:33:03;101508.33;;;10.01;51.83
24013;BME280;12220;50.194;18.948;2023-04-23T00:35:05;101512.83;;;10.02;51.77
24013;BME280;12220;50.194;18.948;2023-04-23T00:37:16;101504.63;;;10.02;51.71
24013;BME280;12220;50.194;18.948;2023-04-23T00:39:17;101510.10;;;10.02;51.69
24013;BME280;12220;50.194;18.948;2023-04-23T00:41:22;101505.58;;;10.01;51.72
24013;BME280;12220;50.194;18.948;2023-04-23T00:43:24;101503.72;;;10.02;51.84
24013;BME280;12220;50.194;18.948;2023-04-23T00:45:31;101505.49;;;10.03;51.86
24013;BME280;12220;50.194;18.948;2023-04-23T00:47:33;101508.14;;;10.04;51.88
24013;BME280;12220;50.194;18.948;2023-04-23T00:49:38;101497.20;;;10.04;51.88
24013;BME280;12220;50.194;18.948;2023-04-23T00:51:42;101502.59;;;10.06;51.86
24013;BME280;12220;50.194;18.948;2023-04-23T00:53:46;101497.20;;;10.04;51.76
24013;BME280;12220;50.194;18.948;2023-04-23T00:55:47;101502.77;;;10.03;51.76
24013;BME280;12220;50.194;18.948;2023-04-23T00:57:49;101502.06;;;9.99;51.76
24013;BME280;12220;50.194;18.948;2023-04-23T00:59:53;101501.24;;;9.97;51.78
24013;BME280;12220;50.194;18.948;2023-04-23T01:02:01;101500.55;;;9.93;51.77
24013;BME280;12220;50.194;18.948;2023-04-23T01:04:03;101504.41;;;9.89;51.82
24013;BME280;12220;50.194;18.948;2023-04-23T01:06:05;101511.84;;;9.87;51.94
24013;BME280;12220;50.194;18.948;2023-04-23T01:08:08;101514.63;;;9.86;52.06
24013;BME280;12220;50.194;18.948;2023-04-23T01:10:16;101511.10;;;9.84;52.04
24013;BME280;12220;50.194;18.948;2023-04-23T01:12:18;101512.96;;;9.83;52.15
24013;BME280;12220;50.194;18.948;2023-04-23T01:14:20;101518.52;;;9.82;52.20
24013;BME280;12220;50.194;18.948;2023-04-23T01:16:21;101513.05;;;9.82;52.29
24013;BME280;12220;50.194;18.948;2023-04-23T01:18:31;101513.05;;;9.82;52.31
24013;BME280;12220;50.194;18.948;2023-04-23T01:20:34;101512.23;;;9.80;52.33
24013;BME280;12220;50.194;18.948;2023-04-23T01:22:36;101517.01;;;9.76;52.44
24013;BME280;12220;50.194;18.948;2023-04-23T01:24:38;101516.27;;;9.72;52.49
24013;BME280;12220;50.194;18.948;2023-04-23T01:26:46;101507.36;;;9.69;52.48
24013;BME280;12220;50.194;18.948;2023-04-23T01:28:48;101514.04;;;9.63;52.53
24013;BME280;12220;50.194;18.948;2023-04-23T01:30:50;101510.83;;;9.55;52.64
24013;BME280;12220;50.194;18.948;2023-04-23T01:32:53;101511.33;;;9.46;52.77
24013;BME280;12220;50.194;18.948;2023-04-23T01:35:02;101510.92;;;9.36;52.88
24013;BME280;12220;50.194;18.948;2023-04-23T01:37:05;101513.25;;;9.26;53.08
24013;BME280;12220;50.194;18.948;2023-04-23T01:39:07;101511.01;;;9.17;53.26
24013;BME280;12220;50.194;18.948;2023-04-23T01:41:09;101509.55;;;9.10;53.45
24013;BME280;12220;50.194;18.948;2023-04-23T01:43:16;101513.41;;;9.05;53.51
24013;BME280;12220;50.194;18.948;2023-04-23T01:45:18;101511.81;;;9.01;53.63
24013;BME280;12220;50.194;18.948;2023-04-23T01:47:20;101513.73;;;8.99;53.73
24013;BME280;12220;50.194;18.948;2023-04-23T01:49:21;101508.41;;;8.96;53.84
24013;BME280;12220;50.194;18.948;2023-04-23T01:51:34;101510.36;;;8.94;53.88
24013;BME280;12220;50.194;18.948;2023-04-23T01:53:36;101515.08;;;8.90;53.95
24013;BME280;12220;50.194;18.948;2023-04-23T01:55:37;101506.96;;;8.89;54.07
24013;BME280;12220;50.194;18.948;2023-04-23T01:57:39;101509.86;;;8.86;54.15
24013;BME280;12220;50.194;18.948;2023-04-23T01:59:46;101506.38;;;8.82;54.18
24013;BME280;12220;50.194;18.948;2023-04-23T02:01:48;101512.75;;;8.83;54.25
24013;BME280;12220;50.194;18.948;2023-04-23T02:03:50;101510.89;;;8.83;54.32
24013;BME280;12220;50.194;18.948;2023-04-23T02:05:52;101509.03;;;8.84;54.39
24013;BME280;12220;50.194;18.948;2023-04-23T02:08:02;101509.11;;;8.82;54.38
24013;BME280;12220;50.194;18.948;2023-04-23T02:10:04;101510.18;;;8.80;54.42
24013;BME280;12220;50.194;18.948;2023-04-23T02:12:06;101505.66;;;8.79;54.49
24013;BME280;12220;50.194;18.948;2023-04-23T02:14:08;101506.61;;;8.78;54.54
24013;BME280;12220;50.194;18.948;2023-04-23T02:16:16;101504.04;;;8.75;54.54
24013;BME280;12220;50.194;18.948;2023-04-23T02:18:19;101516.90;;;8.72;54.60
24013;BME280;12220;50.194;18.948;2023-04-23T02:20:21;101507.88;;;8.70;54.69
24013;BME280;12220;50.194;18.948;2023-04-23T02:22:22;101505.23;;;8.69;54.76
24013;BME280;12220;50.194;18.948;2023-04-23T02:24:32;101495.34;;;8.66;54.79
24013;BME280;12220;50.194;18.948;2023-04-23T02:26:33;101499.05;;;8.65;54.83
24013;BME280;12220;50.194;18.948;2023-04-23T02:28:35;101494.55;;;8.64;54.89
24013;BME280;12220;50.194;18.948;2023-04-23T02:30:36;101497.27;;;8.64;54.95
24013;BME280;12220;50.194;18.948;2023-04-23T02:32:47;101496.48;;;8.62;54.95
24013;BME280;12220;50.194;18.948;2023-04-23T02:34:48;101488.38;;;8.61;55.00
24013;BME280;12220;50.194;18.948;2023-04-23T02:36:49;101526.67;;;8.59;55.06
24013;BME280;12220;50.194;18.948;2023-04-23T02:38:51;101496.77;;;8.56;55.15
24013;BME280;12220;50.194;18.948;2023-04-23T02:41:02;101486.90;;;8.53;55.16
24013;BME280;12220;50.194;18.948;2023-04-23T02:43:03;101488.89;;;8.50;55.27
24013;BME280;12220;50.194;18.948;2023-04-23T02:45:09;101494.49;;;8.47;55.39
24013;BME280;12220;50.194;18.948;2023-04-23T02:47:14;101484.61;;;8.44;55.49
24013;BME280;12220;50.194;18.948;2023-04-23T02:49:17;101489.24;;;8.42;55.51
24013;BME280;12220;50.194;18.948;2023-04-23T02:51:20;101489.32;;;8.41;55.61
24013;BME280;12220;50.194;18.948;2023-04-23T02:53:26;101490.27;;;8.40;55.71
24013;BME280;12220;50.194;18.948;2023-04-23T02:55:34;101496.67;;;8.38;55.83
24013;BME280;12220;50.194;18.948;2023-04-23T02:57:35;101487.70;;;8.36;55.89
24013;BME280;12220;50.194;18.948;2023-04-23T02:59:37;101524.05;;;8.37;55.93
24013;BME280;12220;50.194;18.948;2023-04-23T03:01:38;101498.62;;;8.36;56.00
24013;BME280;12220;50.194;18.948;2023-04-23T03:03:43;101491.30;;;8.37;56.03
24013;BME280;12220;50.194;18.948;2023-04-23T03:05:47;101487.70;;;8.36;56.03
24013;BME280;12220;50.194;18.948;2023-04-23T03:07:48;101486.82;;;8.36;56.06
24013;BME280;12220;50.194;18.948;2023-04-23T03:09:49;101494.11;;;8.35;56.13
24013;BME280;12220;50.194;18.948;2023-04-23T03:11:51;101494.18;;;8.34;56.19
24013;BME280;12220;50.194;18.948;2023-04-23T03:14:02;101488.80;;;8.32;56.31
24013;BME280;12220;50.194;18.948;2023-04-23T03:16:03;101506.20;;;8.30;56.28
24013;BME280;12220;50.194;18.948;2023-04-23T03:18:05;101488.09;;;8.29;56.35
24013;BME280;12220;50.194;18.948;2023-04-23T03:20:08;101492.63;;;8.28;56.41
24013;BME280;12220;50.194;18.948;2023-04-23T03:22:17;101490.96;;;8.26;56.42
24013;BME280;12220;50.194;18.948;2023-04-23T03:24:18;101502.89;;;8.23;56.48
24013;BME280;12220;50.194;18.948;2023-04-23T03:26:19;101488.42;;;8.21;56.58
24013;BME280;12220;50.194;18.948;2023-04-23T03:28:21;101483.05;;;8.19;56.70
24013;BME280;12220;50.194;18.948;2023-04-23T03:30:32;101487.63;;;8.19;56.73
24013;BME280;12220;50.194;18.948;2023-04-23T03:32:35;101489.56;;;8.17;56.81
24013;BME280;12220;50.194;18.948;2023-04-23T03:34:36;101494.11;;;8.16;56.89
24013;BME280;12220;50.194;18.948;2023-04-23T03:36:37;101490.51;;;8.16;56.98
24013;BME280;12220;50.194;18.948;2023-04-23T03:38:47;101487.71;;;8.17;57.00
24013;BME280;12220;50.194;18.948;2023-04-23T03:40:48;101490.44;;;8.17;57.04
24013;BME280;12220;50.194;18.948;2023-04-23T03:42:50;101482.25;;;8.17;57.07
24013;BME280;12220;50.194;18.948;2023-04-23T03:44:51;101486.00;;;8.15;57.08
24013;BME280;12220;50.194;18.948;2023-04-23T03:47:03;101485.20;;;8.13;57.08
24013;BME280;12220;50.194;18.948;2023-04-23T03:49:04;101490.73;;;8.11;57.18
24013;BME280;12220;50.194;18.948;2023-04-23T03:51:06;101490.89;;;8.08;57.28
24013;BME280;12220;50.194;18.948;2023-04-23T03:53:07;101483.72;;;8.06;57.36
24013;BME280;12220;50.194;18.948;2023-04-23T03:55:18;101493.73;;;8.05;57.39
24013;BME280;12220;50.194;18.948;2023-04-23T03:57:20;101491.99;;;8.04;57.46
24013;BME280;12220;50.194;18.948;2023-04-23T03:59:22;101497.52;;;8.02;57.55
24013;BME280;12220;50.194;18.948;2023-04-23T04:01:24;101495.74;;;8.01;57.64
24013;BME280;12220;50.194;18.948;2023-04-23T04:03:33;101495.74;;;8.01;57.66
24013;BME280;12220;50.194;18.948;2023-04-23T04:05:35;101487.63;;;8.00;57.76
24013;BME280;12220;50.194;18.948;2023-04-23T04:07:39;101495.81;;;8.00;57.82
24013;BME280;12220;50.194;18.948;2023-04-23T04:09:41;101490.36;;;8.00;57.91
24013;BME280;12220;50.194;18.948;2023-04-23T04:11:52;101491.23;;;8.00;57.97
24013;BME280;12220;50.194;18.948;2023-04-23T04:13:53;101494.94;;;7.99;58.09
24013;BME280;12220;50.194;18.948;2023-04-23T04:15:55;101505.85;;;7.99;58.21
24013;BME280;12220;50.194;18.948;2023-04-23T04:17:56;101486.76;;;7.99;58.32
24013;BME280;12220;50.194;18.948;2023-04-23T04:20:04;101496.69;;;8.00;58.36
24013;BME280;12220;50.194;18.948;2023-04-23T04:22:08;101493.16;;;7.98;58.46
24013;BME280;12220;50.194;18.948;2023-04-23T04:24:10;101502.13;;;8.00;58.56
24013;BME280;12220;50.194;18.948;2023-04-23T04:26:11;101503.92;;;8.01;58.66
24013;BME280;12220;50.194;18.948;2023-04-23T04:28:18;101498.47;;;8.01;58.72
24013;BME280;12220;50.194;18.948;2023-04-23T04:30:20;101493.88;;;8.02;58.80
24013;BME280;12220;50.194;18.948;2023-04-23T04:32:21;101501.05;;;8.05;58.87
24013;BME280;12220;50.194;18.948;2023-04-23T04:34:23;101491.91;;;8.06;58.95
24013;BME280;12220;50.194;18.948;2023-04-23T04:36:33;101498.16;;;8.08;58.98
24013;BME280;12220;50.194;18.948;2023-04-23T04:38:35;101499.94;;;8.09;59.07
24013;BME280;12220;50.194;18.948;2023-04-23T04:40:39;101492.56;;;8.11;59.16
24013;BME280;12220;50.194;18.948;2023-04-23T04:42:41;101490.66;;;8.13;59.27
24013;BME280;12220;50.194;18.948;2023-04-23T04:44:48;101490.51;;;8.16;59.31
24013;BME280;12220;50.194;18.948;2023-04-23T04:46:50;101490.51;;;8.16;59.45
24013;BME280;12220;50.194;18.948;2023-04-23T04:48:53;101493.16;;;8.17;59.58
24013;BME280;12220;50.194;18.948;2023-04-23T04:50:55;101496.70;;;8.19;59.73
24013;BME280;12220;50.194;18.948;2023-04-23T04:53:03;101498.39;;;8.22;59.80
24013;BME280;12220;50.194;18.948;2023-04-23T04:55:05;101497.45;;;8.23;60.02
24013;BME280;12220;50.194;18.948;2023-04-23T04:57:07;101501.88;;;8.26;60.14
24013;BME280;12220;50.194;18.948;2023-04-23T04:59:09;101501.66;;;8.30;60.22
24013;BME280;12220;50.194;18.948;2023-04-23T05:01:21;101500.55;;;8.34;60.24
24013;BME280;12220;50.194;18.948;2023-04-23T05:03:25;101506.73;;;8.38;60.31
24013;BME280;12220;50.194;18.948;2023-04-23T05:05:27;101508.35;;;8.42;60.43
24013;BME280;12220;50.194;18.948;2023-04-23T05:07:28;101499.96;;;8.47;60.53
24013;BME280;12220;50.194;18.948;2023-04-23T05:09:35;101501.59;;;8.51;60.57
24013;BME280;12220;50.194;18.948;2023-04-23T05:11:36;101501.35;;;8.55;60.65
24013;BME280;12220;50.194;18.948;2023-04-23T05:13:40;101505.63;;;8.61;60.75
24013;BME280;12220;50.194;18.948;2023-04-23T05:15:42;101501.78;;;8.65;60.86
24013;BME280;12220;50.194;18.948;2023-04-23T05:17:50;101503.34;;;8.71;60.95
24013;BME280;12220;50.194;18.948;2023-04-23T05:19:53;101500.36;;;8.76;61.05
24013;BME280;12220;50.194;18.948;2023-04-23T05:21:55;101500.99;;;8.81;61.23
24013;BME280;12220;50.194;18.948;2023-04-23T05:23:56;101495.16;;;8.88;61.66
24013;BME280;12220;50.194;18.948;2023-04-23T05:26:05;101499.36;;;8.96;61.80
24013;BME280;12220;50.194;18.948;2023-04-23T05:28:09;101500.81;;;9.03;62.13
24013;BME280;12220;50.194;18.948;2023-04-23T05:30:11;101498.54;;;9.11;61.99
24013;BME280;12220;50.194;18.948;2023-04-23T05:32:12;101500.89;;;9.19;61.95
24013;BME280;12220;50.194;18.948;2023-04-23T05:34:20;101503.22;;;9.27;61.93
24013;BME280;12220;50.194;18.948;2023-04-23T05:36:21;101498.29;;;9.33;61.89
24013;BME280;12220;50.194;18.948;2023-04-23T05:38:22;101505.20;;;9.40;61.86
24013;BME280;12220;50.194;18.948;2023-04-23T05:40:24;101500.23;;;9.49;61.87
24013;BME280;12220;50.194;18.948;2023-04-23T05:42:35;101496.98;;;9.58;61.85
24013;BME280;12220;50.194;18.948;2023-04-23T05:44:37;101494.64;;;9.68;61.83
24013;BME280;12220;50.194;18.948;2023-04-23T05:46:41;101496.95;;;9.75;61.74
24013;BME280;12220;50.194;18.948;2023-04-23T05:48:42;101496.55;;;9.83;61.60
24013;BME280;12220;50.194;18.948;2023-04-23T05:50:50;101496.99;;;9.91;61.50
24013;BME280;12220;50.194;18.948;2023-04-23T05:52:51;101497.55;;;9.98;61.40
24013;BME280;12220;50.194;18.948;2023-04-23T05:54:53;101496.24;;;10.05;61.35
24013;BME280;12220;50.194;18.948;2023-04-23T05:56:55;101489.46;;;10.12;61.30
24013;BME280;12220;50.194;18.948;2023-04-23T05:59:05;101496.36;;;10.20;61.19
24013;BME280;12220;50.194;18.948;2023-04-23T06:01:06;101494.22;;;10.25;61.16
24013;BME280;12220;50.194;18.948;2023-04-23T06:03:10;101492.84;;;10.34;61.12
24013;BME280;12220;50.194;18.948;2023-04-23T06:05:12;101493.39;;;10.40;61.15
24013;BME280;12220;50.194;18.948;2023-04-23T06:07:20;101497.36;;;10.51;61.08
24013;BME280;12220;50.194;18.948;2023-04-23T06:09:21;101500.55;;;10.59;61.02
24013;BME280;12220;50.194;18.948;2023-04-23T06:11:23;101493.66;;;10.68;60.93
24013;BME280;12220;50.194;18.948;2023-04-23T06:13:24;101489.39;;;10.78;60.83
24013;BME280;12220;50.194;18.948;2023-04-23T06:15:35;101488.74;;;10.89;60.76
24013;BME280;12220;50.194;18.948;2023-04-23T06:17:36;100780.60;;;6.31;60.30
24013;BME280;12220;50.194;18.948;2023-04-23T06:19:39;101490.39;;;11.07;60.64
24013;BME280;12220;50.194;18.948;2023-04-23T06:21:41;101487.89;;;11.19;60.52
24013;BME280;12220;50.194;18.948;2023-04-23T06:23:50;101487.21;;;11.29;60.27
24013;BME280;12220;50.194;18.948;2023-04-23T06:25:51;101481.25;;;11.37;60.12
24013;BME280;12220;50.194;18.948;2023-04-23T06:27:53;101477.95;;;11.46;59.97
24013;BME280;12220;50.194;18.948;2023-04-23T06:29:57;101478.18;;;11.58;59.79
24013;BME280;12220;50.194;18.948;2023-04-23T06:32:05;101476.82;;;11.65;59.70
24013;BME280;12220;50.194;18.948;2023-04-23T06:34:07;101481.71;;;11.74;59.59
24013;BME280;12220;50.194;18.948;2023-04-23T06:36:08;101476.53;;;11.84;59.42
24013;BME280;12220;50.194;18.948;2023-04-23T06:38:11;101472.25;;;11.94;59.24
24013;BME280;12220;50.194;18.948;2023-04-23T06:40:20;101474.38;;;12.03;59.05
24013;BME280;12220;50.194;18.948;2023-04-23T06:42:21;101473.88;;;12.11;58.93
24013;BME280;12220;50.194;18.948;2023-04-23T06:44:23;101470.45;;;12.22;58.79
24013;BME280;12220;50.194;18.948;2023-04-23T06:46:24;101467.90;;;12.33;58.66
24013;BME280;12220;50.194;18.948;2023-04-23T06:48:35;101471.78;;;12.44;58.58
24013;BME280;12220;50.194;18.948;2023-04-23T06:50:37;101477.42;;;12.55;58.48
24013;BME280;12220;50.194;18.948;2023-04-23T06:52:40;101472.20;;;12.65;58.38
24013;BME280;12220;50.194;18.948;2023-04-23T06:54:41;101465.89;;;12.77;58.25
24013;BME280;12220;50.194;18.948;2023-04-23T06:56:50;101464.06;;;12.90;58.09
24013;BME280;12220;50.194;18.948;2023-04-23T06:58:52;101461.54;;;13.00;57.95
24013;BME280;12220;50.194;18.948;2023-04-23T07:00:53;101462.59;;;13.12;57.79
24013;BME280;12220;50.194;18.948;2023-04-23T07:02:55;101455.23;;;13.25;57.66
24013;BME280;12220;50.194;18.948;2023-04-23T07:05:05;101460.68;;;13.40;57.50
24013;BME280;12220;50.194;18.948;2023-04-23T07:07:07;101457.04;;;13.52;57.36
24013;BME280;12220;50.194;18.948;2023-04-23T07:09:08;101454.19;;;13.67;57.18
24013;BME280;12220;50.194;18.948;2023-04-23T07:11:10;101455.84;;;13.82;57.00
24013;BME280;12220;50.194;18.948;2023-04-23T07:13:20;101448.22;;;13.99;56.73
24013;BME280;12220;50.194;18.948;2023-04-23T07:15:21;101449.06;;;14.12;56.50
24013;BME280;12220;50.194;18.948;2023-04-23T07:17:23;101451.68;;;14.26;56.22
24013;BME280;12220;50.194;18.948;2023-04-23T07:19:24;101449.53;;;14.43;55.85
24013;BME280;12220;50.194;18.948;2023-04-23T07:21:35;101450.03;;;14.61;55.71
24013;BME280;12220;50.194;18.948;2023-04-23T07:23:36;101449.77;;;14.77;55.43
24013;BME280;12220;50.194;18.948;2023-04-23T07:25:38;101455.62;;;14.96;55.28
24013;BME280;12220;50.194;18.948;2023-04-23T07:27:39;101449.54;;;15.15;55.01
24013;BME280;12220;50.194;18.948;2023-04-23T07:29:50;101444.23;;;15.37;54.68
24013;BME280;12220;50.194;18.948;2023-04-23T07:31:55;101439.11;;;15.55;54.09
24013;BME280;12220;50.194;18.948;2023-04-23T07:33:56;101439.49;;;15.73;53.78
24013;BME280;12220;50.194;18.948;2023-04-23T07:35:58;101438.05;;;15.91;53.45
24013;BME280;12220;50.194;18.948;2023-04-23T07:38:05;101432.91;;;16.09;53.28
24013;BME280;12220;50.194;18.948;2023-04-23T07:40:07;101440.02;;;16.23;52.74
24013;BME280;12220;50.194;18.948;2023-04-23T07:42:09;101440.50;;;16.39;52.42
24013;BME280;12220;50.194;18.948;2023-04-23T07:44:10;101434.55;;;16.55;51.87
24013;BME280;12220;50.194;18.948;2023-04-23T07:46:20;101428.60;;;16.71;51.97
24013;BME280;12220;50.194;18.948;2023-04-23T07:48:21;101426.67;;;16.83;51.36
24013;BME280;12220;50.194;18.948;2023-04-23T07:50:23;101428.30;;;16.97;51.14
24013;BME280;12220;50.194;18.948;2023-04-23T07:52:24;101451.88;;;17.13;50.82
24013;BME280;12220;50.194;18.948;2023-04-23T07:54:35;101425.48;;;17.30;50.56
24013;BME280;12220;50.194;18.948;2023-04-23T07:56:36;101424.27;;;17.43;49.83
24013;BME280;12220;50.194;18.948;2023-04-23T07:58:37;101421.16;;;17.58;49.44
24013;BME280;12220;50.194;18.948;2023-04-23T08:00:39;101434.80;;;17.71;48.78
24013;BME280;12220;50.194;18.948;2023-04-23T08:02:49;101421.30;;;17.87;48.50
24013;BME280;12220;50.194;18.948;2023-04-23T08:04:53;101412.79;;;18.00;47.93
24013;BME280;12220;50.194;18.948;2023-04-23T08:06:57;101414.13;;;18.16;47.87
24013;BME280;12220;50.194;18.948;2023-04-23T08:08:58;101413.60;;;18.32;47.42
24013;BME280;12220;50.194;18.948;2023-04-23T08:11:05;101406.79;;;18.45;46.94
24013;BME280;12220;50.194;18.948;2023-04-23T08:13:07;101405.63;;;18.58;46.23
24013;BME280;12220;50.194;18.948;2023-04-23T08:15:10;101401.42;;;18.73;45.04
24013;BME280;12220;50.194;18.948;2023-04-23T08:17:11;101409.50;;;18.86;44.35
24013;BME280;12220;50.194;18.948;2023-04-23T08:19:19;101407.01;;;19.03;43.67
24013;BME280;12220;50.194;18.948;2023-04-23T08:21:21;101401.30;;;19.14;43.37
24013;BME280;12220;50.194;18.948;2023-04-23T08:23:25;101394.40;;;19.28;43.71
24013;BME280;12220;50.194;18.948;2023-04-23T08:25:27;101391.16;;;19.42;43.10
24013;BME280;12220;50.194;18.948;2023-04-23T08:27:34;101397.56;;;19.53;42.56
24013;BME280;12220;50.194;18.948;2023-04-23T08:29:36;101384.40;;;19.64;41.86
24013;BME280;12220;50.194;18.948;2023-04-23T08:31:43;101392.52;;;19.76;41.76
24013;BME280;12220;50.194;18.948;2023-04-23T08:33:44;101385.20;;;19.84;38.96
24013;BME280;12220;50.194;18.948;2023-04-23T08:35:49;101386.94;;;19.95;40.14
24013;BME280;12220;50.194;18.948;2023-04-23T08:37:50;101417.32;;;20.07;40.03
24013;BME280;12220;50.194;18.948;2023-04-23T08:39:52;101380.09;;;20.17;40.17
24013;BME280;12220;50.194;18.948;2023-04-23T08:41:54;101380.90;;;20.28;38.34
24013;BME280;12220;50.194;18.948;2023-04-23T08:44:17;101379.39;;;20.33;35.29
24013;BME280;12220;50.194;18.948;2023-04-23T08:46:30;101374.23;;;20.38;34.70
24013;BME280;12220;50.194;18.948;2023-04-23T08:48:33;101380.05;;;20.45;35.67
24013;BME280;12220;50.194;18.948;2023-04-23T08:50:41;101375.61;;;20.52;36.28
24013;BME280;12220;50.194;18.948;2023-04-23T08:52:48;101369.09;;;20.62;36.07
24013;BME280;12220;50.194;18.948;2023-04-23T08:54:53;101367.13;;;20.72;36.31
24013;BME280;12220;50.194;18.948;2023-04-23T08:57:02;101365.30;;;20.81;35.13
24013;BME280;12220;50.194;18.948;2023-04-23T08:59:04;101367.31;;;20.88;35.83
24013;BME280;12220;50.194;18.948;2023-04-23T09:01:11;101372.93;;;20.97;35.99
24013;BME280;12220;50.194;18.948;2023-04-23T09:03:18;101366.73;;;21.03;33.95
24013;BME280;12220;50.194;18.948;2023-04-23T09:05:23;101367.68;;;21.12;34.44
24013;BME280;12220;50.194;18.948;2023-04-23T09:07:32;101361.45;;;21.18;34.27
24013;BME280;12220;50.194;18.948;2023-04-23T09:09:46;101362.39;;;21.27;34.71
24013;BME280;12220;50.194;18.948;2023-04-23T09:11:58;101353.21;;;21.34;34.45
24013;BME280;12220;50.194;18.948;2023-04-23T09:14:06;101355.04;;;21.44;34.70
24013;BME280;12220;50.194;18.948;2023-04-23T09:16:19;101194.77;;;20.52;34.23
24013;BME280;12220;50.194;18.948;2023-04-23T09:18:21;101363.69;;;21.58;33.83
24013;BME280;12220;50.194;18.948;2023-04-23T09:20:25;101364.77;;;21.66;33.24
24013;BME280;12220;50.194;18.948;2023-04-23T09:24:44;101358.69;;;21.70;32.25
24013;BME280;12220;50.194;18.948;2023-04-23T09:26:59;101347.96;;;21.84;33.10
24013;BME280;12220;50.194;18.948;2023-04-23T09:29:16;101358.27;;;21.91;32.66
24013;BME280;12220;50.194;18.948;2023-04-23T09:31:20;101351.14;;;21.97;32.89
24013;BME280;12220;50.194;18.948;2023-04-23T09:33:23;101350.80;;;22.00;32.68
24013;BME280;12220;50.194;18.948;2023-04-23T09:35:26;101351.88;;;22.07;32.42
24013;BME280;12220;50.194;18.948;2023-04-23T09:37:30;101344.77;;;22.13;32.97
24013;BME280;12220;50.194;18.948;2023-04-23T09:39:33;101337.63;;;22.19;32.97
24013;BME280;12220;50.194;18.948;2023-04-23T09:41:35;101339.91;;;22.23;32.35
24013;BME280;12220;50.194;18.948;2023-04-23T09:43:40;101338.05;;;22.32;33.10
24013;BME280;12220;50.194;18.948;2023-04-23T09:45:48;101344.00;;;22.37;32.71
24013;BME280;12220;50.194;18.948;2023-04-23T09:47:52;101331.98;;;22.37;31.35
24013;BME280;12220;50.194;18.948;2023-04-23T09:49:54;101336.87;;;22.43;32.23
24013;BME280;12220;50.194;18.948;2023-04-23T09:51:55;101341.07;;;22.47;31.53
24013;BME280;12220;50.194;18.948;2023-04-23T09:54:02;101330.77;;;22.48;31.23
24013;BME280;12220;50.194;18.948;2023-04-23T09:56:06;101330.95;;;22.46;31.58
24013;BME280;12220;50.194;18.948;2023-04-23T09:58:13;101333.91;;;22.44;31.00
24013;BME280;12220;50.194;18.948;2023-04-23T10:00:19;101329.90;;;22.47;31.84
24013;BME280;12220;50.194;18.948;2023-04-23T10:02:30;101321.19;;;22.50;32.29
24013;BME280;12220;50.194;18.948;2023-04-23T10:04:39;101325.04;;;22.57;32.38
24013;BME280;12220;50.194;18.948;2023-04-23T10:06:41;101316.65;;;22.66;32.62
24013;BME280;12220;50.194;18.948;2023-04-23T10:08:43;101316.66;;;22.74;32.29
24013;BME280;12220;50.194;18.948;2023-04-23T10:10:46;101315.27;;;22.78;32.04
24013;BME280;12220;50.194;18.948;2023-04-23T10:12:52;101308.30;;;22.82;32.20
24013;BME280;12220;50.194;18.948;2023-04-23T10:14:56;101303.95;;;22.88;32.88
24013;BME280;12220;50.194;18.948;2023-04-23T10:17:01;101298.15;;;22.97;32.83
24013;BME280;12220;50.194;18.948;2023-04-23T10:19:05;101300.59;;;23.09;32.83
24013;BME280;12220;50.194;18.948;2023-04-23T10:21:09;101297.84;;;23.17;32.60
24013;BME280;12220;50.194;18.948;2023-04-23T10:23:12;101300.45;;;23.19;31.89
24013;BME280;12220;50.194;18.948;2023-04-23T10:25:14;101295.36;;;23.22;32.11
24013;BME280;12220;50.194;18.948;2023-04-23T10:27:15;101294.32;;;23.23;31.52
24013;BME280;12220;50.194;18.948;2023-04-23T10:29:25;101283.83;;;23.25;31.79
24013;BME280;12220;50.194;18.948;2023-04-23T10:31:30;101290.31;;;23.26;31.57
24013;BME280;12220;50.194;18.948;2023-04-23T10:33:33;101274.08;;;23.21;30.93
24013;BME280;12220;50.194;18.948;2023-04-23T10:35:35;101275.63;;;23.24;31.53
24013;BME280;12220;50.194;18.948;2023-04-23T10:37:40;101273.55;;;23.26;31.84
24013;BME280;12220;50.194;18.948;2023-04-23T10:39:43;101279.31;;;23.24;31.20
24013;BME280;12220;50.194;18.948;2023-04-23T10:41:47;101286.12;;;23.22;30.76
24013;BME280;12220;50.194;18.948;2023-04-23T10:43:52;101273.37;;;23.27;31.47
24013;BME280;12220;50.194;18.948;2023-04-23T10:45:54;101268.62;;;23.36;31.94